sensor_id;sensor_type;location;lat;lon;timestamp;P1;durP1;ratioP1;P2;durP2;ratioP2
71046;SDS011;58703;48.978;8.982;2023-12-14T00:01:51;4.30;;;1.33;;
71046;SDS011;58703;48.978;8.982;2023-12-14T00:04:17;1.35;;;1.25;;
71046;SDS011;58703;48.978;8.982;2023-12-14T00:06:42;5.27;;;1.73;;
71046;SDS011;58703;48.978;8.982;2023-12-14T00:09:08;5.97;;;1.50;;
71046;SDS011;58703;48.978;8.982;2023-12-14T00:11:38;1.77;;;1.37;;
71046;SDS011;58703;48.978;8.982;2023-12-14T00:14:04;2.95;;;1.10;;
71046;SDS011;58703;48.978;8.982;2023-12-14T00:16:31;2.22;;;1.15;;
71046;SDS011;58703;48.978;8.982;2023-12-14T00:18:57;3.75;;;1.83;;
71046;SDS011;58703;48.978;8.982;2023-12-14T00:21:23;5.53;;;1.60;;
71046;SDS011;58703;48.978;8.982;2023-12-14T00:23:48;1.83;;;1.52;;
71046;SDS011;58703;48.978;8.982;2023-12-14T00:26:14;3.03;;;2.23;;
71046;SDS011;58703;48.978;8.982;2023-12-14T00:28:39;2.33;;;1.83;;
71046;SDS011;58703;48.978;8.982;2023-12-14T00:31:05;3.40;;;2.20;;
71046;SDS011;58703;48.978;8.982;2023-12-14T00:33:31;3.33;;;2.17;;
71046;SDS011;58703;48.978;8.982;2023-12-14T00:35:57;6.80;;;2.67;;
71046;SDS011;58703;48.978;8.982;2023-12-14T00:38:23;4.35;;;2.80;;
71046;SDS011;58703;48.978;8.982;2023-12-14T00:40:48;5.43;;;3.20;;
71046;SDS011;58703;48.978;8.982;2023-12-14T00:43:14;7.10;;;2.80;;
71046;SDS011;58703;48.978;8.982;2023-12-14T00:45:39;3.70;;;2.47;;
71046;SDS011;58703;48.978;8.982;2023-12-14T00:48:06;5.68;;;2.90;;
71046;SDS011;58703;48.978;8.982;2023-12-14T00:50:32;3.83;;;2.50;;
71046;SDS011;58703;48.978;8.982;2023-12-14T00:52:57;4.63;;;2.83;;
71046;SDS011;58703;48.978;8.982;2023-12-14T00:55:23;2.65;;;1.77;;
71046;SDS011;58703;48.978;8.982;2023-12-14T00:57:49;6.37;;;2.37;;
71046;SDS011;58703;48.978;8.982;2023-12-14T01:00:14;7.20;;;2.08;;
71046;SDS011;58703;48.978;8.982;2023-12-14T01:02:40;3.42;;;2.10;;
71046;SDS011;58703;48.978;8.982;2023-12-14T01:05:06;4.33;;;2.40;;
71046;SDS011;58703;48.978;8.982;2023-12-14T01:07:32;3.15;;;2.42;;
71046;SDS011;58703;48.978;8.982;2023-12-14T01:09:57;4.27;;;2.30;;
71046;SDS011;58703;48.978;8.982;2023-12-14T01:12:23;5.00;;;2.10;;
71046;SDS011;58703;48.978;8.982;2023-12-14T01:14:48;2.60;;;1.90;;
71046;SDS011;58703;48.978;8.982;2023-12-14T01:17:14;4.03;;;1.60;;
71046;SDS011;58703;48.978;8.982;2023-12-14T01:19:40;2.05;;;1.75;;
71046;SDS011;58703;48.978;8.982;2023-12-14T01:22:08;4.43;;;2.20;;
71046;SDS011;58703;48.978;8.982;2023-12-14T01:24:34;2.03;;;1.80;;
71046;SDS011;58703;48.978;8.982;2023-12-14T01:26:59;4.93;;;2.22;;
71046;SDS011;58703;48.978;8.982;2023-12-14T01:29:25;4.47;;;2.40;;
71046;SDS011;58703;48.978;8.982;2023-12-14T01:31:50;3.00;;;2.37;;
71046;SDS011;58703;48.978;8.982;2023-12-14T01:34:16;3.87;;;2.73;;
71046;SDS011;58703;48.978;8.982;2023-12-14T01:36:41;4.45;;;2.58;;
71046;SDS011;58703;48.978;8.982;2023-12-14T01:39:07;5.67;;;3.10;;
71046;SDS011;58703;48.978;8.982;2023-12-14T01:41:33;8.63;;;3.33;;
71046;SDS011;58703;48.978;8.982;2023-12-14T01:43:58;6.97;;;3.10;;
71046;SDS011;58703;48.978;8.982;2023-12-14T01:46:24;6.23;;;3.70;;
71046;SDS011;58703;48.978;8.982;2023-12-14T01:48:49;9.48;;;3.80;;
71046;SDS011;58703;48.978;8.982;2023-12-14T01:51:17;6.30;;;3.47;;
71046;SDS011;58703;48.978;8.982;2023-12-14T01:53:42;6.23;;;3.37;;
71046;SDS011;58703;48.978;8.982;2023-12-14T01:56:08;7.05;;;3.20;;
71046;SDS011;58703;48.978;8.982;2023-12-14T01:58:34;3.80;;;2.97;;
71046;SDS011;58703;48.978;8.982;2023-12-14T02:01:16;5.53;;;2.42;;
71046;SDS011;58703;48.978;8.982;2023-12-14T02:03:50;3.83;;;2.20;;
71046;SDS011;58703;48.978;8.982;2023-12-14T02:06:17;8.07;;;4.00;;
71046;SDS011;58703;48.978;8.982;2023-12-14T02:08:43;7.38;;;2.58;;
71046;SDS011;58703;48.978;8.982;2023-12-14T02:11:08;5.87;;;2.80;;
71046;SDS011;58703;48.978;8.982;2023-12-14T02:13:34;5.73;;;3.13;;
71046;SDS011;58703;48.978;8.982;2023-12-14T02:15:59;6.95;;;3.60;;
71046;SDS011;58703;48.978;8.982;2023-12-14T02:18:25;6.73;;;4.13;;
71046;SDS011;58703;48.978;8.982;2023-12-14T02:20:50;7.97;;;3.43;;
71046;SDS011;58703;48.978;8.982;2023-12-14T02:23:16;7.97;;;4.25;;
71046;SDS011;58703;48.978;8.982;2023-12-14T02:25:42;8.15;;;4.72;;
71046;SDS011;58703;48.978;8.982;2023-12-14T02:28:08;8.63;;;4.53;;
71046;SDS011;58703;48.978;8.982;2023-12-14T02:30:33;10.57;;;4.20;;
71046;SDS011;58703;48.978;8.982;2023-12-14T02:32:59;7.97;;;4.05;;
71046;SDS011;58703;48.978;8.982;2023-12-14T02:35:24;9.85;;;4.07;;
71046;SDS011;58703;48.978;8.982;2023-12-14T02:37:50;7.77;;;4.00;;
71046;SDS011;58703;48.978;8.982;2023-12-14T02:40:15;8.18;;;4.15;;
71046;SDS011;58703;48.978;8.982;2023-12-14T02:42:41;5.05;;;3.15;;
71046;SDS011;58703;48.978;8.982;2023-12-14T02:45:07;8.25;;;3.83;;
71046;SDS011;58703;48.978;8.982;2023-12-14T02:47:33;7.70;;;3.67;;
71046;SDS011;58703;48.978;8.982;2023-12-14T02:49:58;8.65;;;3.17;;
71046;SDS011;58703;48.978;8.982;2023-12-14T02:52:24;4.50;;;3.23;;
71046;SDS011;58703;48.978;8.982;2023-12-14T02:54:49;6.17;;;3.77;;
71046;SDS011;58703;48.978;8.982;2023-12-14T02:57:15;6.25;;;3.65;;
71046;SDS011;58703;48.978;8.982;2023-12-14T02:59:40;11.07;;;4.47;;
71046;SDS011;58703;48.978;8.982;2023-12-14T03:02:06;7.53;;;3.87;;
71046;SDS011;58703;48.978;8.982;2023-12-14T03:04:32;9.23;;;4.53;;
71046;SDS011;58703;48.978;8.982;2023-12-14T03:06:57;10.50;;;4.73;;
71046;SDS011;58703;48.978;8.982;2023-12-14T03:09:27;7.10;;;4.60;;
71046;SDS011;58703;48.978;8.982;2023-12-14T03:11:56;9.90;;;5.75;;
71046;SDS011;58703;48.978;8.982;2023-12-14T03:14:22;9.23;;;4.77;;
71046;SDS011;58703;48.978;8.982;2023-12-14T03:16:48;7.60;;;4.15;;
71046;SDS011;58703;48.978;8.982;2023-12-14T03:19:14;8.07;;;4.32;;
71046;SDS011;58703;48.978;8.982;2023-12-14T03:21:42;6.27;;;3.90;;
71046;SDS011;58703;48.978;8.982;2023-12-14T03:24:08;8.00;;;3.25;;
71046;SDS011;58703;48.978;8.982;2023-12-14T03:26:34;6.57;;;3.08;;
71046;SDS011;58703;48.978;8.982;2023-12-14T03:29:00;8.07;;;4.35;;
71046;SDS011;58703;48.978;8.982;2023-12-14T03:31:26;4.85;;;3.05;;
71046;SDS011;58703;48.978;8.982;2023-12-14T03:33:51;7.83;;;3.83;;
71046;SDS011;58703;48.978;8.982;2023-12-14T03:36:17;8.90;;;4.07;;
71046;SDS011;58703;48.978;8.982;2023-12-14T03:38:42;6.55;;;3.38;;
71046;SDS011;58703;48.978;8.982;2023-12-14T03:41:08;7.07;;;3.63;;
71046;SDS011;58703;48.978;8.982;2023-12-14T03:43:33;8.53;;;3.60;;
71046;SDS011;58703;48.978;8.982;2023-12-14T03:45:59;7.22;;;4.15;;
71046;SDS011;58703;48.978;8.982;2023-12-14T03:48:24;11.07;;;4.17;;
71046;SDS011;58703;48.978;8.982;2023-12-14T03:50:50;9.10;;;4.90;;
71046;SDS011;58703;48.978;8.982;2023-12-14T03:53:15;9.88;;;4.93;;
71046;SDS011;58703;48.978;8.982;2023-12-14T03:55:41;7.05;;;4.63;;
71046;SDS011;58703;48.978;8.982;2023-12-14T03:58:06;11.13;;;4.50;;
71046;SDS011;58703;48.978;8.982;2023-12-14T04:00:32;7.70;;;4.03;;
71046;SDS011;58703;48.978;8.982;2023-12-14T04:02:57;6.43;;;4.43;;
71046;SDS011;58703;48.978;8.982;2023-12-14T04:05:23;5.70;;;3.83;;
71046;SDS011;58703;48.978;8.982;2023-12-14T04:07:48;8.93;;;4.07;;
71046;SDS011;58703;48.978;8.982;2023-12-14T04:10:14;6.85;;;3.63;;
71046;SDS011;58703;48.978;8.982;2023-12-14T04:12:40;9.00;;;4.38;;
71046;SDS011;58703;48.978;8.982;2023-12-14T04:15:07;9.07;;;3.67;;
71046;SDS011;58703;48.978;8.982;2023-12-14T04:17:34;7.45;;;4.38;;
71046;SDS011;58703;48.978;8.982;2023-12-14T04:20:00;8.60;;;4.65;;
71046;SDS011;58703;48.978;8.982;2023-12-14T04:22:26;10.18;;;4.95;;
71046;SDS011;58703;48.978;8.982;2023-12-14T04:24:52;9.00;;;5.37;;
71046;SDS011;58703;48.978;8.982;2023-12-14T04:27:17;12.43;;;5.23;;
71046;SDS011;58703;48.978;8.982;2023-12-14T04:29:43;13.05;;;5.18;;
71046;SDS011;58703;48.978;8.982;2023-12-14T04:32:09;7.43;;;5.20;;
71046;SDS011;58703;48.978;8.982;2023-12-14T04:34:35;6.65;;;4.72;;
71046;SDS011;58703;48.978;8.982;2023-12-14T04:37:00;6.43;;;4.13;;
71046;SDS011;58703;48.978;8.982;2023-12-14T04:39:26;9.93;;;4.93;;
71046;SDS011;58703;48.978;8.982;2023-12-14T04:41:52;8.40;;;4.75;;
71046;SDS011;58703;48.978;8.982;2023-12-14T04:44:19;8.38;;;4.53;;
71046;SDS011;58703;48.978;8.982;2023-12-14T04:46:46;9.18;;;4.78;;
71046;SDS011;58703;48.978;8.982;2023-12-14T04:49:12;7.18;;;3.90;;
71046;SDS011;58703;48.978;8.982;2023-12-14T04:51:38;7.85;;;4.38;;
71046;SDS011;58703;48.978;8.982;2023-12-14T04:54:04;8.27;;;4.03;;
71046;SDS011;58703;48.978;8.982;2023-12-14T04:56:29;8.23;;;4.67;;
71046;SDS011;58703;48.978;8.982;2023-12-14T04:58:55;8.93;;;5.22;;
71046;SDS011;58703;48.978;8.982;2023-12-14T05:01:20;8.20;;;5.57;;
71046;SDS011;58703;48.978;8.982;2023-12-14T05:03:46;11.05;;;5.68;;
71046;SDS011;58703;48.978;8.982;2023-12-14T05:06:12;15.20;;;6.77;;
71046;SDS011;58703;48.978;8.982;2023-12-14T05:08:37;15.30;;;8.33;;
71046;SDS011;58703;48.978;8.982;2023-12-14T05:11:03;18.00;;;8.82;;
71046;SDS011;58703;48.978;8.982;2023-12-14T05:13:29;17.77;;;9.43;;
71046;SDS011;58703;48.978;8.982;2023-12-14T05:15:55;15.45;;;8.50;;
71046;SDS011;58703;48.978;8.982;2023-12-14T05:18:23;23.77;;;7.97;;
71046;SDS011;58703;48.978;8.982;2023-12-14T05:20:50;15.00;;;7.82;;
71046;SDS011;58703;48.978;8.982;2023-12-14T05:23:15;15.95;;;7.22;;
71046;SDS011;58703;48.978;8.982;2023-12-14T05:25:41;13.53;;;7.03;;
71046;SDS011;58703;48.978;8.982;2023-12-14T05:28:07;15.98;;;8.07;;
71046;SDS011;58703;48.978;8.982;2023-12-14T05:30:33;14.33;;;6.97;;
71046;SDS011;58703;48.978;8.982;2023-12-14T05:32:58;17.88;;;8.15;;
71046;SDS011;58703;48.978;8.982;2023-12-14T05:35:24;15.43;;;7.80;;
71046;SDS011;58703;48.978;8.982;2023-12-14T05:37:49;15.90;;;8.27;;
71046;SDS011;58703;48.978;8.982;2023-12-14T05:40:15;15.82;;;7.95;;
71046;SDS011;58703;48.978;8.982;2023-12-14T05:42:40;15.93;;;8.60;;
71046;SDS011;58703;48.978;8.982;2023-12-14T05:45:06;18.20;;;9.82;;
71046;SDS011;58703;48.978;8.982;2023-12-14T05:47:32;19.02;;;9.75;;
71046;SDS011;58703;48.978;8.982;2023-12-14T05:50:03;24.70;;;11.65;;
71046;SDS011;58703;48.978;8.982;2023-12-14T05:52:29;22.80;;;11.70;;
71046;SDS011;58703;48.978;8.982;2023-12-14T05:54:55;23.30;;;11.43;;
71046;SDS011;58703;48.978;8.982;2023-12-14T05:57:20;19.65;;;11.60;;
71046;SDS011;58703;48.978;8.982;2023-12-14T05:59:46;21.23;;;11.65;;
71046;SDS011;58703;48.978;8.982;2023-12-14T06:02:12;21.70;;;11.37;;
71046;SDS011;58703;48.978;8.982;2023-12-14T06:04:38;27.30;;;11.70;;
71046;SDS011;58703;48.978;8.982;2023-12-14T06:07:03;22.77;;;11.67;;
71046;SDS011;58703;48.978;8.982;2023-12-14T06:09:29;19.75;;;10.82;;
71046;SDS011;58703;48.978;8.982;2023-12-14T06:12:00;22.10;;;10.73;;
71046;SDS011;58703;48.978;8.982;2023-12-14T06:14:29;19.35;;;10.00;;
71046;SDS011;58703;48.978;8.982;2023-12-14T06:16:55;22.63;;;10.65;;
71046;SDS011;58703;48.978;8.982;2023-12-14T06:19:21;18.77;;;9.80;;
71046;SDS011;58703;48.978;8.982;2023-12-14T06:21:47;19.10;;;10.68;;
71046;SDS011;58703;48.978;8.982;2023-12-14T06:24:13;19.80;;;10.45;;
71046;SDS011;58703;48.978;8.982;2023-12-14T06:26:42;19.15;;;10.07;;
71046;SDS011;58703;48.978;8.982;2023-12-14T06:29:14;15.68;;;9.48;;
71046;SDS011;58703;48.978;8.982;2023-12-14T06:31:40;21.90;;;10.90;;
71046;SDS011;58703;48.978;8.982;2023-12-14T06:34:06;16.90;;;8.60;;
71046;SDS011;58703;48.978;8.982;2023-12-14T06:36:32;18.15;;;10.00;;
71046;SDS011;58703;48.978;8.982;2023-12-14T06:39:02;21.67;;;10.70;;
71046;SDS011;58703;48.978;8.982;2023-12-14T06:41:28;20.35;;;10.20;;
71046;SDS011;58703;48.978;8.982;2023-12-14T06:43:54;19.05;;;10.13;;
71046;SDS011;58703;48.978;8.982;2023-12-14T06:46:20;24.73;;;11.90;;
71046;SDS011;58703;48.978;8.982;2023-12-14T06:48:47;21.63;;;10.20;;
71046;SDS011;58703;48.978;8.982;2023-12-14T06:51:13;24.48;;;11.80;;
71046;SDS011;58703;48.978;8.982;2023-12-14T06:53:39;22.48;;;11.70;;
71046;SDS011;58703;48.978;8.982;2023-12-14T06:56:06;23.80;;;11.88;;
71046;SDS011;58703;48.978;8.982;2023-12-14T06:58:38;22.17;;;11.45;;
71046;SDS011;58703;48.978;8.982;2023-12-14T07:01:08;28.42;;;12.77;;
71046;SDS011;58703;48.978;8.982;2023-12-14T07:03:42;26.13;;;12.05;;
71046;SDS011;58703;48.978;8.982;2023-12-14T07:06:13;26.35;;;13.43;;
71046;SDS011;58703;48.978;8.982;2023-12-14T07:08:39;25.33;;;12.75;;
71046;SDS011;58703;48.978;8.982;2023-12-14T07:11:07;24.90;;;12.93;;
71046;SDS011;58703;48.978;8.982;2023-12-14T07:13:33;26.05;;;12.07;;
71046;SDS011;58703;48.978;8.982;2023-12-14T07:16:04;24.77;;;12.40;;
71046;SDS011;58703;48.978;8.982;2023-12-14T07:18:31;24.50;;;13.02;;
71046;SDS011;58703;48.978;8.982;2023-12-14T07:20:56;22.17;;;10.63;;
71046;SDS011;58703;48.978;8.982;2023-12-14T07:23:22;24.70;;;11.93;;
71046;SDS011;58703;48.978;8.982;2023-12-14T07:25:48;27.70;;;12.37;;
71046;SDS011;58703;48.978;8.982;2023-12-14T07:28:13;30.55;;;14.20;;
71046;SDS011;58703;48.978;8.982;2023-12-14T07:30:39;27.30;;;13.03;;
71046;SDS011;58703;48.978;8.982;2023-12-14T07:33:05;24.23;;;11.52;;
71046;SDS011;58703;48.978;8.982;2023-12-14T07:35:31;27.93;;;12.80;;
71046;SDS011;58703;48.978;8.982;2023-12-14T07:37:56;28.80;;;13.35;;
71046;SDS011;58703;48.978;8.982;2023-12-14T07:40:22;25.30;;;12.57;;
71046;SDS011;58703;48.978;8.982;2023-12-14T07:42:48;26.90;;;12.32;;
71046;SDS011;58703;48.978;8.982;2023-12-14T07:45:14;27.87;;;13.13;;
71046;SDS011;58703;48.978;8.982;2023-12-14T07:47:39;32.70;;;12.70;;
71046;SDS011;58703;48.978;8.982;2023-12-14T07:50:05;26.90;;;11.98;;
71046;SDS011;58703;48.978;8.982;2023-12-14T07:52:31;31.97;;;13.50;;
71046;SDS011;58703;48.978;8.982;2023-12-14T07:54:57;26.55;;;12.52;;
71046;SDS011;58703;48.978;8.982;2023-12-14T07:57:23;25.63;;;12.43;;
71046;SDS011;58703;48.978;8.982;2023-12-14T07:59:49;30.83;;;13.80;;
71046;SDS011;58703;48.978;8.982;2023-12-14T08:02:15;23.90;;;11.97;;
71046;SDS011;58703;48.978;8.982;2023-12-14T08:04:41;31.20;;;13.43;;
71046;SDS011;58703;48.978;8.982;2023-12-14T08:07:06;21.55;;;10.70;;
71046;SDS011;58703;48.978;8.982;2023-12-14T08:09:32;28.30;;;12.63;;
71046;SDS011;58703;48.978;8.982;2023-12-14T08:11:58;23.98;;;12.27;;
71046;SDS011;58703;48.978;8.982;2023-12-14T08:14:24;27.40;;;12.97;;
71046;SDS011;58703;48.978;8.982;2023-12-14T08:16:49;21.30;;;11.50;;
71046;SDS011;58703;48.978;8.982;2023-12-14T08:19:15;24.20;;;12.83;;
71046;SDS011;58703;48.978;8.982;2023-12-14T08:21:41;21.13;;;11.45;;
71046;SDS011;58703;48.978;8.982;2023-12-14T08:24:06;26.37;;;12.80;;
71046;SDS011;58703;48.978;8.982;2023-12-14T08:26:32;23.45;;;11.93;;
71046;SDS011;58703;48.978;8.982;2023-12-14T08:28:58;23.33;;;12.25;;
71046;SDS011;58703;48.978;8.982;2023-12-14T08:31:24;22.45;;;12.18;;
71046;SDS011;58703;48.978;8.982;2023-12-14T08:33:50;26.55;;;13.77;;
71046;SDS011;58703;48.978;8.982;2023-12-14T08:36:17;24.23;;;13.15;;
71046;SDS011;58703;48.978;8.982;2023-12-14T08:38:43;24.95;;;12.57;;
71046;SDS011;58703;48.978;8.982;2023-12-14T08:41:12;28.60;;;14.02;;
71046;SDS011;58703;48.978;8.982;2023-12-14T08:43:39;26.37;;;13.60;;
71046;SDS011;58703;48.978;8.982;2023-12-14T08:46:05;26.35;;;13.38;;
71046;SDS011;58703;48.978;8.982;2023-12-14T08:48:30;24.17;;;11.53;;
71046;SDS011;58703;48.978;8.982;2023-12-14T08:50:56;25.67;;;12.27;;
71046;SDS011;58703;48.978;8.982;2023-12-14T08:53:22;26.10;;;12.27;;
71046;SDS011;58703;48.978;8.982;2023-12-14T08:55:48;29.42;;;13.70;;
71046;SDS011;58703;48.978;8.982;2023-12-14T08:58:13;25.30;;;12.57;;
71046;SDS011;58703;48.978;8.982;2023-12-14T09:00:39;22.93;;;11.73;;
71046;SDS011;58703;48.978;8.982;2023-12-14T09:03:05;19.95;;;9.73;;
71046;SDS011;58703;48.978;8.982;2023-12-14T09:05:31;20.40;;;10.02;;
71046;SDS011;58703;48.978;8.982;2023-12-14T09:07:58;19.47;;;9.80;;
71046;SDS011;58703;48.978;8.982;2023-12-14T09:10:24;16.13;;;8.45;;
71046;SDS011;58703;48.978;8.982;2023-12-14T09:12:51;19.83;;;9.43;;
71046;SDS011;58703;48.978;8.982;2023-12-14T09:15:17;16.10;;;9.70;;
71046;SDS011;58703;48.978;8.982;2023-12-14T09:17:42;16.77;;;8.65;;
71046;SDS011;58703;48.978;8.982;2023-12-14T09:20:08;16.23;;;8.27;;
71046;SDS011;58703;48.978;8.982;2023-12-14T09:22:36;15.35;;;8.40;;
71046;SDS011;58703;48.978;8.982;2023-12-14T09:25:01;16.52;;;8.32;;
71046;SDS011;58703;48.978;8.982;2023-12-14T09:27:28;15.70;;;8.20;;
71046;SDS011;58703;48.978;8.982;2023-12-14T09:29:55;14.93;;;8.13;;
71046;SDS011;58703;48.978;8.982;2023-12-14T09:32:21;17.30;;;8.63;;
71046;SDS011;58703;48.978;8.982;2023-12-14T09:34:47;13.45;;;7.55;;
71046;SDS011;58703;48.978;8.982;2023-12-14T09:37:12;16.63;;;8.97;;
71046;SDS011;58703;48.978;8.982;2023-12-14T09:39:39;15.00;;;8.18;;
71046;SDS011;58703;48.978;8.982;2023-12-14T09:42:05;15.20;;;8.20;;
71046;SDS011;58703;48.978;8.982;2023-12-14T09:44:33;15.80;;;8.52;;
71046;SDS011;58703;48.978;8.982;2023-12-14T09:47:00;13.70;;;8.48;;
71046;SDS011;58703;48.978;8.982;2023-12-14T09:49:28;13.70;;;8.10;;
71046;SDS011;58703;48.978;8.982;2023-12-14T09:51:59;15.15;;;7.75;;
71046;SDS011;58703;48.978;8.982;2023-12-14T09:54:25;15.43;;;7.78;;
71046;SDS011;58703;48.978;8.982;2023-12-14T09:56:51;15.30;;;7.95;;
71046;SDS011;58703;48.978;8.982;2023-12-14T09:59:18;12.50;;;7.80;;
71046;SDS011;58703;48.978;8.982;2023-12-14T10:01:44;13.90;;;7.73;;
71046;SDS011;58703;48.978;8.982;2023-12-14T10:04:11;11.63;;;7.10;;
71046;SDS011;58703;48.978;8.982;2023-12-14T10:06:39;13.55;;;8.13;;
71046;SDS011;58703;48.978;8.982;2023-12-14T10:09:05;13.93;;;8.50;;
71046;SDS011;58703;48.978;8.982;2023-12-14T10:11:40;13.55;;;7.72;;
71046;SDS011;58703;48.978;8.982;2023-12-14T10:14:17;12.65;;;8.00;;
71046;SDS011;58703;48.978;8.982;2023-12-14T10:16:47;13.88;;;7.72;;
71046;SDS011;58703;48.978;8.982;2023-12-14T10:19:14;12.93;;;7.72;;
71046;SDS011;58703;48.978;8.982;2023-12-14T10:21:39;14.00;;;8.40;;
71046;SDS011;58703;48.978;8.982;2023-12-14T10:24:06;15.63;;;8.23;;
71046;SDS011;58703;48.978;8.982;2023-12-14T10:26:31;15.03;;;8.00;;
71046;SDS011;58703;48.978;8.982;2023-12-14T10:28:57;15.33;;;8.50;;
71046;SDS011;58703;48.978;8.982;2023-12-14T10:31:23;16.85;;;8.63;;
71046;SDS011;58703;48.978;8.982;2023-12-14T10:33:49;14.98;;;8.82;;
71046;SDS011;58703;48.978;8.982;2023-12-14T10:36:18;14.95;;;8.23;;
71046;SDS011;58703;48.978;8.982;2023-12-14T10:38:45;16.15;;;8.60;;
71046;SDS011;58703;48.978;8.982;2023-12-14T10:41:13;15.07;;;8.43;;
71046;SDS011;58703;48.978;8.982;2023-12-14T10:43:42;14.07;;;8.75;;
71046;SDS011;58703;48.978;8.982;2023-12-14T10:46:09;14.55;;;8.45;;
71046;SDS011;58703;48.978;8.982;2023-12-14T10:48:35;16.45;;;8.40;;
71046;SDS011;58703;48.978;8.982;2023-12-14T10:51:04;13.63;;;8.43;;
71046;SDS011;58703;48.978;8.982;2023-12-14T10:53:32;13.18;;;7.80;;
71046;SDS011;58703;48.978;8.982;2023-12-14T10:55:59;12.77;;;8.55;;
71046;SDS011;58703;48.978;8.982;2023-12-14T10:58:34;17.42;;;9.55;;
71046;SDS011;58703;48.978;8.982;2023-12-14T11:01:14;15.07;;;8.30;;
71046;SDS011;58703;48.978;8.982;2023-12-14T11:03:40;12.40;;;7.75;;
71046;SDS011;58703;48.978;8.982;2023-12-14T11:08:52;15.43;;;7.85;;
71046;SDS011;58703;48.978;8.982;2023-12-14T11:11:20;12.23;;;6.95;;
71046;SDS011;58703;48.978;8.982;2023-12-14T11:13:52;12.93;;;6.80;;
71046;SDS011;58703;48.978;8.982;2023-12-14T11:16:25;11.48;;;6.38;;
71046;SDS011;58703;48.978;8.982;2023-12-14T11:21:59;10.70;;;7.05;;
71046;SDS011;58703;48.978;8.982;2023-12-14T11:24:33;12.43;;;6.53;;
71046;SDS011;58703;48.978;8.982;2023-12-14T11:27:03;10.48;;;6.30;;
71046;SDS011;58703;48.978;8.982;2023-12-14T11:29:30;12.23;;;5.85;;
71046;SDS011;58703;48.978;8.982;2023-12-14T11:31:55;9.00;;;6.27;;
71046;SDS011;58703;48.978;8.982;2023-12-14T11:34:23;10.73;;;6.45;;
71046;SDS011;58703;48.978;8.982;2023-12-14T11:36:49;11.00;;;5.95;;
71046;SDS011;58703;48.978;8.982;2023-12-14T11:39:15;10.37;;;6.40;;
71046;SDS011;58703;48.978;8.982;2023-12-14T11:41:40;10.00;;;5.67;;
71046;SDS011;58703;48.978;8.982;2023-12-14T11:44:06;7.78;;;4.90;;
71046;SDS011;58703;48.978;8.982;2023-12-14T11:46:32;10.97;;;5.47;;
71046;SDS011;58703;48.978;8.982;2023-12-14T11:48:57;3.70;;;2.38;;
71046;SDS011;58703;48.978;8.982;2023-12-14T11:51:23;3.20;;;1.50;;
71046;SDS011;58703;48.978;8.982;2023-12-14T11:53:51;1.67;;;1.50;;
71046;SDS011;58703;48.978;8.982;2023-12-14T11:56:17;2.97;;;1.65;;
71046;SDS011;58703;48.978;8.982;2023-12-14T11:58:44;5.10;;;2.80;;
71046;SDS011;58703;48.978;8.982;2023-12-14T12:01:17;3.63;;;2.60;;
71046;SDS011;58703;48.978;8.982;2023-12-14T12:03:44;7.25;;;3.20;;
71046;SDS011;58703;48.978;8.982;2023-12-14T12:06:23;6.13;;;3.25;;
71046;SDS011;58703;48.978;8.982;2023-12-14T12:08:50;5.97;;;3.45;;
71046;SDS011;58703;48.978;8.982;2023-12-14T12:11:17;6.57;;;4.05;;
71046;SDS011;58703;48.978;8.982;2023-12-14T12:13:43;7.82;;;4.95;;
71046;SDS011;58703;48.978;8.982;2023-12-14T12:16:09;7.65;;;4.68;;
71046;SDS011;58703;48.978;8.982;2023-12-14T12:18:35;7.40;;;4.60;;
71046;SDS011;58703;48.978;8.982;2023-12-14T12:21:03;7.50;;;4.07;;
71046;SDS011;58703;48.978;8.982;2023-12-14T12:23:31;8.27;;;4.28;;
71046;SDS011;58703;48.978;8.982;2023-12-14T12:25:57;3.42;;;2.90;;
71046;SDS011;58703;48.978;8.982;2023-12-14T12:28:23;3.17;;;2.63;;
71046;SDS011;58703;48.978;8.982;2023-12-14T12:30:50;4.28;;;2.53;;
71046;SDS011;58703;48.978;8.982;2023-12-14T12:33:16;4.40;;;2.53;;
71046;SDS011;58703;48.978;8.982;2023-12-14T12:35:41;5.25;;;3.13;;
71046;SDS011;58703;48.978;8.982;2023-12-14T12:38:07;6.80;;;3.43;;
71046;SDS011;58703;48.978;8.982;2023-12-14T12:40:32;4.50;;;2.90;;
71046;SDS011;58703;48.978;8.982;2023-12-14T12:42:58;4.50;;;2.80;;
71046;SDS011;58703;48.978;8.982;2023-12-14T12:45:24;5.65;;;2.83;;
71046;SDS011;58703;48.978;8.982;2023-12-14T12:47:53;7.82;;;3.65;;
71046;SDS011;58703;48.978;8.982;2023-12-14T12:50:19;4.78;;;3.47;;
71046;SDS011;58703;48.978;8.982;2023-12-14T12:52:45;7.07;;;3.85;;
71046;SDS011;58703;48.978;8.982;2023-12-14T12:55:14;3.65;;;2.60;;
71046;SDS011;58703;48.978;8.982;2023-12-14T12:57:40;5.45;;;3.20;;
71046;SDS011;58703;48.978;8.982;2023-12-14T13:00:09;4.00;;;2.70;;
71046;SDS011;58703;48.978;8.982;2023-12-14T13:02:41;4.82;;;3.08;;
71046;SDS011;58703;48.978;8.982;2023-12-14T13:05:08;4.50;;;2.95;;
71046;SDS011;58703;48.978;8.982;2023-12-14T13:07:34;6.35;;;3.45;;
71046;SDS011;58703;48.978;8.982;2023-12-14T13:10:00;6.47;;;3.53;;
71046;SDS011;58703;48.978;8.982;2023-12-14T13:12:26;7.00;;;4.30;;
71046;SDS011;58703;48.978;8.982;2023-12-14T13:14:51;6.97;;;4.50;;
71046;SDS011;58703;48.978;8.982;2023-12-14T13:17:17;7.00;;;4.47;;
71046;SDS011;58703;48.978;8.982;2023-12-14T13:19:43;8.27;;;4.80;;
71046;SDS011;58703;48.978;8.982;2023-12-14T13:22:10;8.57;;;4.78;;
71046;SDS011;58703;48.978;8.982;2023-12-14T13:24:36;8.48;;;4.78;;
71046;SDS011;58703;48.978;8.982;2023-12-14T13:27:03;8.48;;;6.00;;
71046;SDS011;58703;48.978;8.982;2023-12-14T13:29:29;10.32;;;5.57;;
71046;SDS011;58703;48.978;8.982;2023-12-14T13:31:57;8.70;;;5.65;;
71046;SDS011;58703;48.978;8.982;2023-12-14T13:34:22;13.77;;;6.13;;
71046;SDS011;58703;48.978;8.982;2023-12-14T13:36:48;10.17;;;5.57;;
71046;SDS011;58703;48.978;8.982;2023-12-14T13:39:14;13.02;;;6.93;;
71046;SDS011;58703;48.978;8.982;2023-12-14T13:41:39;10.37;;;5.63;;
71046;SDS011;58703;48.978;8.982;2023-12-14T13:44:05;11.30;;;6.43;;
71046;SDS011;58703;48.978;8.982;2023-12-14T13:46:30;11.43;;;6.32;;
71046;SDS011;58703;48.978;8.982;2023-12-14T13:48:56;10.13;;;6.13;;
71046;SDS011;58703;48.978;8.982;2023-12-14T13:51:22;9.40;;;5.80;;
71046;SDS011;58703;48.978;8.982;2023-12-14T13:53:47;14.47;;;7.47;;
71046;SDS011;58703;48.978;8.982;2023-12-14T13:56:13;11.30;;;6.37;;
71046;SDS011;58703;48.978;8.982;2023-12-14T13:58:38;10.48;;;6.45;;
71046;SDS011;58703;48.978;8.982;2023-12-14T14:01:07;15.13;;;6.50;;
71046;SDS011;58703;48.978;8.982;2023-12-14T14:03:36;10.38;;;6.78;;
71046;SDS011;58703;48.978;8.982;2023-12-14T14:06:04;11.85;;;6.45;;
71046;SDS011;58703;48.978;8.982;2023-12-14T14:08:30;13.68;;;7.53;;
71046;SDS011;58703;48.978;8.982;2023-12-14T14:10:58;14.00;;;7.63;;
71046;SDS011;58703;48.978;8.982;2023-12-14T14:13:24;12.77;;;7.20;;
71046;SDS011;58703;48.978;8.982;2023-12-14T14:15:50;11.00;;;6.97;;
71046;SDS011;58703;48.978;8.982;2023-12-14T14:18:16;13.15;;;6.78;;
71046;SDS011;58703;48.978;8.982;2023-12-14T14:20:41;14.25;;;7.32;;
71046;SDS011;58703;48.978;8.982;2023-12-14T14:23:07;13.77;;;7.10;;
71046;SDS011;58703;48.978;8.982;2023-12-14T14:25:33;12.48;;;6.78;;
71046;SDS011;58703;48.978;8.982;2023-12-14T14:27:59;11.70;;;6.37;;
71046;SDS011;58703;48.978;8.982;2023-12-14T14:30:24;11.50;;;6.35;;
71046;SDS011;58703;48.978;8.982;2023-12-14T14:32:50;12.83;;;7.20;;
71046;SDS011;58703;48.978;8.982;2023-12-14T14:35:16;16.33;;;8.52;;
71046;SDS011;58703;48.978;8.982;2023-12-14T14:37:41;13.50;;;7.37;;
71046;SDS011;58703;48.978;8.982;2023-12-14T14:40:14;13.50;;;6.88;;